createdAt,value
2023-11-26T00:02:03.584Z,3.29
2023-11-26T00:04:31.867Z,3.16
2023-11-26T00:07:00.028Z,3.27
2023-11-26T00:09:28.017Z,3.20
2023-11-26T00:11:56.150Z,3.18
2023-11-26T00:14:24.159Z,3.24
2023-11-26T00:16:52.637Z,3.31
2023-11-26T00:19:20.718Z,3.31
2023-11-26T00:21:50.423Z,3.22
2023-11-26T00:24:18.619Z,3.39
2023-11-26T00:26:46.862Z,3.30
2023-11-26T00:29:15.868Z,3.22
2023-11-26T00:31:44.020Z,3.09
2023-11-26T00:34:12.480Z,3.24
2023-11-26T00:36:40.584Z,3.32
2023-11-26T00:39:10.252Z,3.12
2023-11-26T00:41:38.493Z,2.92
2023-11-26T00:44:06.565Z,2.70
2023-11-26T00:46:34.830Z,2.55
2023-11-26T00:49:07.081Z,2.60
2023-11-26T00:51:35.287Z,2.72
2023-11-26T00:54:03.457Z,2.67
2023-11-26T00:56:31.487Z,2.55
2023-11-26T00:58:59.720Z,2.53
2023-11-26T01:01:27.855Z,2.53
2023-11-26T01:03:56.245Z,2.33
2023-11-26T01:06:24.370Z,2.03
2023-11-26T01:08:52.368Z,1.86
2023-11-26T01:11:20.570Z,1.75
2023-11-26T01:13:48.937Z,1.55
2023-11-26T01:16:17.116Z,1.53
2023-11-26T01:18:45.389Z,1.39
2023-11-26T01:21:14.847Z,1.24
2023-11-26T01:23:43.486Z,1.15
2023-11-26T01:26:12.469Z,1.03
2023-11-26T01:28:40.804Z,0.86
2023-11-26T01:31:14.556Z,0.79
2023-11-26T01:33:42.683Z,0.75
2023-11-26T01:36:11.285Z,0.53
2023-11-26T01:38:39.996Z,0.37
2023-11-26T01:41:08.743Z,0.32
2023-11-26T01:43:36.766Z,0.28
2023-11-26T01:46:07.101Z,0.07
2023-11-26T01:48:36.675Z,0.09
2023-11-26T01:51:07.310Z,0.12
2023-11-26T01:53:36.678Z,0.01
2023-11-26T01:56:05.832Z,-0.12
2023-11-26T01:58:35.224Z,-0.24
2023-11-26T02:01:03.676Z,-0.34
2023-11-26T02:03:32.027Z,-0.29
2023-11-26T02:06:00.449Z,-0.37
2023-11-26T02:08:28.737Z,-0.36
2023-11-26T02:10:56.844Z,-0.23
2023-11-26T02:13:26.464Z,-0.24
2023-11-26T02:15:54.634Z,-0.22
2023-11-26T02:18:22.783Z,-0.33
2023-11-26T02:20:51.069Z,-0.37
2023-11-26T02:23:19.132Z,-0.47
2023-11-26T02:25:47.204Z,-0.42
2023-11-26T02:28:15.246Z,-0.45
2023-11-26T02:30:43.397Z,-0.52
2023-11-26T02:33:11.589Z,-0.57
2023-11-26T02:35:39.749Z,-0.50
2023-11-26T02:38:08.159Z,-0.35
2023-11-26T02:40:36.284Z,-0.27
2023-11-26T02:43:04.560Z,-0.25
2023-11-26T02:45:32.555Z,-0.25
2023-11-26T02:48:00.944Z,-0.23
2023-11-26T02:50:29.545Z,-0.24
2023-11-26T02:52:57.587Z,-0.27
2023-11-26T02:55:25.628Z,-0.32
2023-11-26T02:57:53.910Z,-0.31
2023-11-26T03:00:21.960Z,-0.30
2023-11-26T03:02:50.680Z,-0.35
2023-11-26T03:05:19.938Z,-0.42
2023-11-26T03:07:50.277Z,-0.50
2023-11-26T03:10:38.052Z,-0.48
2023-11-26T03:13:13.697Z,-0.46
2023-11-26T03:15:42.260Z,-0.45
2023-11-26T03:18:14.069Z,-0.42
2023-11-26T03:20:42.780Z,-0.39
2023-11-26T03:23:11.197Z,-0.33
2023-11-26T03:25:39.803Z,-0.31
2023-11-26T03:28:09.209Z,-0.24
2023-11-26T03:30:37.508Z,-0.23
2023-11-26T03:33:05.871Z,-0.21
2023-11-26T03:35:34.167Z,-0.20
2023-11-26T03:38:03.026Z,-0.17
2023-11-26T03:40:31.244Z,-0.28
2023-11-26T03:42:59.987Z,-0.46
2023-11-26T03:45:28.063Z,-0.51
2023-11-26T03:47:57.691Z,-0.48
2023-11-26T03:50:26.173Z,-0.52
2023-11-26T03:52:55.442Z,-0.53
2023-11-26T03:55:23.745Z,-0.65
2023-11-26T03:57:53.820Z,-0.73
2023-11-26T04:00:22.988Z,-0.71
2023-11-26T04:02:52.449Z,-0.74
2023-11-26T04:05:21.302Z,-0.76
2023-11-26T04:07:50.832Z,-0.74
2023-11-26T04:10:27.526Z,-0.67
2023-11-26T04:13:00.492Z,-0.73
2023-11-26T04:15:28.750Z,-0.70
2023-11-26T04:17:56.930Z,-0.64
2023-11-26T04:20:28.245Z,-0.46
2023-11-26T04:22:56.473Z,-0.36
2023-11-26T04:25:24.800Z,-0.24
2023-11-26T04:27:52.804Z,-0.33
2023-11-26T04:30:21.142Z,-0.47
2023-11-26T04:32:49.345Z,-0.45
2023-11-26T04:35:17.371Z,-0.44
2023-11-26T04:37:45.593Z,-0.48
2023-11-26T04:40:13.709Z,-0.48
2023-11-26T04:42:41.805Z,-0.35
2023-11-26T04:45:11.345Z,-0.29
2023-11-26T04:47:39.736Z,-0.30
2023-11-26T04:50:08.563Z,-0.30
2023-11-26T04:52:36.692Z,-0.45
2023-11-26T04:55:05.082Z,-0.56
2023-11-26T04:57:33.103Z,-0.51
2023-11-26T05:00:01.352Z,-0.55
2023-11-26T05:02:33.809Z,-0.53
2023-11-26T05:05:02.406Z,-0.61
2023-11-26T05:07:30.700Z,-0.60
2023-11-26T05:09:58.847Z,-0.51
2023-11-26T05:12:26.905Z,-0.43
2023-11-26T05:14:54.901Z,-0.45
2023-11-26T05:19:51.297Z,-0.43
2023-11-26T05:22:19.313Z,-0.47
2023-11-26T05:24:47.299Z,-0.36
2023-11-26T05:27:15.333Z,-0.34
2023-11-26T05:29:43.513Z,-0.39
2023-11-26T05:32:12.129Z,-0.58
2023-11-26T05:34:40.295Z,-0.69
2023-11-26T05:37:08.276Z,-0.92
2023-11-26T05:39:36.301Z,-1.09
2023-11-26T05:42:04.583Z,-1.14
2023-11-26T05:44:33.003Z,-1.09
2023-11-26T05:47:01.064Z,-1.09
2023-11-26T05:49:29.465Z,-1.19
2023-11-26T05:51:58.846Z,-1.29
2023-11-26T05:54:27.035Z,-1.31
2023-11-26T05:56:55.195Z,-1.36
2023-11-26T05:59:23.366Z,-1.33
2023-11-26T06:01:51.854Z,-1.23
2023-11-26T06:04:19.863Z,-1.10
2023-11-26T06:06:48.436Z,-1.08
2023-11-26T06:09:16.834Z,-0.87
2023-11-26T06:11:45.383Z,-0.92
2023-11-26T06:14:13.426Z,-0.95
2023-11-26T06:16:44.920Z,-0.78
2023-11-26T06:19:12.910Z,-0.52
2023-11-26T06:21:41.036Z,-0.33
2023-11-26T06:24:10.448Z,-0.08
2023-11-26T06:26:39.420Z,-0.02
2023-11-26T06:29:07.859Z,0.14
2023-11-26T06:31:36.016Z,0.11
2023-11-26T06:34:04.264Z,0.10
2023-11-26T06:36:32.378Z,0.09
2023-11-26T06:39:00.466Z,0.05
2023-11-26T06:41:29.763Z,-0.11
2023-11-26T06:43:58.183Z,-0.18
2023-11-26T06:46:28.409Z,-0.25
2023-11-26T06:48:57.014Z,-0.32
2023-11-26T06:51:25.230Z,-0.29
2023-11-26T06:53:53.661Z,-0.31
2023-11-26T06:56:21.855Z,-0.33
2023-11-26T06:58:49.836Z,-0.24
2023-11-26T07:01:17.846Z,-0.24
2023-11-26T07:03:46.449Z,-0.26
2023-11-26T07:06:14.760Z,-0.23
2023-11-26T07:08:44.809Z,-0.11
2023-11-26T07:11:17.892Z,-0.01
2023-11-26T07:13:49.276Z,0.12
2023-11-26T07:16:18.242Z,0.09
2023-11-26T07:18:46.760Z,0.03
2023-11-26T07:21:16.295Z,-0.08
2023-11-26T07:23:44.563Z,-0.11
2023-11-26T07:26:13.507Z,-0.11
2023-11-26T07:28:41.670Z,-0.15
2023-11-26T07:31:17.330Z,-0.17
2023-11-26T07:33:46.909Z,-0.21
2023-11-26T07:36:17.405Z,-0.27
2023-11-26T07:38:45.584Z,-0.33
2023-11-26T07:41:14.123Z,-0.20
2023-11-26T07:43:42.952Z,-0.19
2023-11-26T07:46:11.547Z,-0.24
2023-11-26T07:48:40.263Z,-0.17
2023-11-26T07:51:09.386Z,-0.09
2023-11-26T07:53:39.417Z,-0.03
2023-11-26T07:56:08.328Z,0.08
2023-11-26T07:58:36.578Z,0.21
2023-11-26T08:01:04.738Z,0.16
2023-11-26T08:03:33.597Z,0.25
2023-11-26T08:06:03.269Z,0.19
2023-11-26T08:08:38.708Z,0.15
2023-11-26T08:11:09.099Z,0.21
2023-11-26T08:13:40.479Z,0.29
2023-11-26T08:16:10.494Z,0.39
2023-11-26T08:18:41.144Z,0.47
2023-11-26T08:21:09.681Z,0.51
2023-11-26T08:23:52.088Z,0.51
2023-11-26T08:26:24.102Z,0.50
2023-11-26T08:28:52.429Z,0.49
2023-11-26T08:31:23.450Z,0.62
2023-11-26T08:33:52.011Z,0.77
2023-11-26T08:36:20.387Z,0.85
2023-11-26T08:38:49.467Z,1.01
2023-11-26T08:41:22.776Z,0.98
2023-11-26T08:43:52.726Z,1.04
2023-11-26T08:46:22.847Z,1.05
2023-11-26T08:48:54.283Z,1.01
2023-11-26T08:51:23.647Z,1.02
2023-11-26T08:53:51.951Z,1.14
2023-11-26T08:56:20.760Z,1.20
2023-11-26T08:58:48.721Z,1.24
2023-11-26T09:01:16.822Z,1.25
2023-11-26T09:03:45.132Z,1.35
2023-11-26T09:06:14.263Z,1.38
2023-11-26T09:08:42.446Z,1.37
2023-11-26T09:11:11.085Z,1.41
2023-11-26T09:13:39.315Z,1.54
2023-11-26T09:16:07.894Z,1.61
2023-11-26T09:18:39.183Z,1.82
2023-11-26T09:21:07.276Z,1.84
2023-11-26T09:23:35.903Z,1.96
2023-11-26T09:26:05.836Z,2.04
2023-11-26T09:28:34.018Z,2.25
2023-11-26T09:31:05.218Z,2.39
2023-11-26T09:33:33.494Z,2.37
2023-11-26T09:36:04.037Z,2.43
2023-11-26T09:38:32.014Z,2.44
2023-11-26T09:41:00.051Z,2.46
2023-11-26T09:43:32.165Z,2.48
2023-11-26T09:46:01.939Z,2.59
2023-11-26T09:48:30.510Z,2.61
2023-11-26T09:51:00.392Z,2.68
2023-11-26T09:53:30.196Z,2.68
2023-11-26T09:55:59.064Z,2.66
2023-11-26T09:58:27.190Z,2.72
2023-11-26T10:00:56.216Z,2.76
2023-11-26T10:03:24.883Z,2.59
2023-11-26T10:06:09.467Z,2.68
2023-11-26T10:08:37.488Z,3.14
2023-11-26T10:11:06.268Z,3.49
2023-11-26T10:13:39.844Z,3.57
2023-11-26T10:16:09.814Z,3.61
2023-11-26T10:18:42.188Z,3.54
2023-11-26T10:21:10.215Z,3.29
2023-11-26T10:23:40.122Z,3.28
2023-11-26T10:26:28.452Z,3.17
2023-11-26T10:29:02.573Z,3.07
2023-11-26T10:31:30.938Z,2.75
2023-11-26T10:34:17.569Z,2.86
2023-11-26T10:36:45.824Z,2.90
2023-11-26T10:39:16.186Z,2.73
2023-11-26T10:41:48.438Z,2.54
2023-11-26T10:44:17.323Z,2.51
2023-11-26T10:46:46.327Z,2.66
2023-11-26T10:49:14.368Z,2.48
2023-11-26T10:51:47.004Z,2.21
2023-11-26T10:54:25.806Z,2.16
2023-11-26T10:56:55.345Z,2.16
2023-11-26T10:59:24.166Z,2.00
2023-11-26T11:01:52.425Z,2.13
2023-11-26T11:04:22.389Z,2.16
2023-11-26T11:06:50.554Z,2.23
2023-11-26T11:09:25.425Z,2.36
2023-11-26T11:11:59.668Z,2.06
2023-11-26T11:14:29.158Z,2.01
2023-11-26T11:16:57.262Z,1.81
2023-11-26T11:19:44.209Z,1.84
2023-11-26T11:22:12.270Z,1.73
2023-11-26T11:24:40.319Z,1.68
2023-11-26T11:27:08.690Z,1.66
2023-11-26T11:29:36.831Z,1.82
2023-11-26T11:32:05.517Z,1.86
2023-11-26T11:34:34.826Z,1.90
2023-11-26T11:37:04.316Z,1.84
2023-11-26T11:39:45.899Z,1.93
2023-11-26T11:42:15.086Z,1.73
2023-11-26T11:44:44.463Z,1.76
2023-11-26T11:47:16.579Z,1.76
2023-11-26T11:49:47.846Z,1.77
2023-11-26T11:52:16.932Z,1.77
2023-11-26T11:54:54.028Z,1.82
2023-11-26T11:57:28.926Z,1.90
2023-11-26T11:59:57.073Z,1.82
2023-11-26T12:02:25.445Z,1.76
2023-11-26T12:04:54.426Z,1.68
2023-11-26T12:07:30.516Z,1.72
2023-11-26T12:10:02.578Z,1.83
2023-11-26T12:12:31.017Z,1.94
2023-11-26T12:15:07.894Z,2.00
2023-11-26T12:17:36.276Z,2.17
2023-11-26T12:20:07.917Z,2.20
2023-11-26T12:22:44.209Z,2.26
2023-11-26T12:25:12.565Z,2.18
2023-11-26T12:27:40.692Z,1.90
2023-11-26T12:30:12.553Z,1.73
2023-11-26T12:32:44.476Z,1.64
2023-11-26T12:35:13.557Z,1.57
2023-11-26T12:37:44.108Z,1.43
2023-11-26T12:40:12.831Z,1.35
2023-11-26T12:42:43.082Z,1.42
2023-11-26T12:45:12.128Z,1.36
2023-11-26T12:47:53.181Z,1.26
2023-11-26T12:50:22.491Z,1.28
2023-11-26T12:52:51.478Z,1.50
2023-11-26T12:55:19.880Z,1.60
2023-11-26T12:57:48.174Z,1.63
2023-11-26T13:00:16.442Z,1.61
2023-11-26T13:02:47.941Z,1.58
2023-11-26T13:05:28.752Z,1.69
2023-11-26T13:07:57.519Z,1.70
2023-11-26T13:10:45.093Z,1.79
2023-11-26T13:13:13.948Z,1.73
2023-11-26T13:15:43.240Z,1.66
2023-11-26T13:18:14.833Z,1.58
2023-11-26T13:20:47.715Z,1.46
2023-11-26T13:23:16.459Z,1.29
2023-11-26T13:25:52.741Z,1.16
2023-11-26T13:28:21.350Z,1.14
2023-11-26T13:30:50.418Z,1.25
2023-11-26T13:33:19.160Z,1.26
2023-11-26T13:35:48.073Z,1.14
2023-11-26T13:38:16.689Z,1.15
2023-11-26T13:40:49.130Z,1.30
2023-11-26T13:43:22.436Z,1.24
2023-11-26T13:45:51.397Z,1.18
2023-11-26T13:48:24.580Z,1.08
2023-11-26T13:50:53.672Z,1.00
2023-11-26T13:53:24.804Z,1.00
2023-11-26T13:55:54.764Z,0.94
2023-11-26T13:58:23.758Z,0.87
2023-11-26T14:00:52.069Z,0.80
2023-11-26T14:03:20.589Z,0.83
2023-11-26T14:05:48.991Z,0.71
2023-11-26T14:08:17.069Z,0.57
2023-11-26T14:10:46.673Z,0.61
2023-11-26T14:13:19.380Z,0.60
2023-11-26T14:15:48.004Z,0.54
2023-11-26T14:18:16.187Z,0.56
2023-11-26T14:20:44.269Z,0.39
2023-11-26T14:23:13.124Z,0.40
2023-11-26T14:25:41.441Z,0.53
2023-11-26T14:28:10.868Z,0.59
2023-11-26T14:30:39.723Z,0.58
2023-11-26T14:33:07.977Z,0.69
2023-11-26T14:35:36.302Z,1.03
2023-11-26T14:38:04.429Z,0.94
2023-11-26T14:40:32.438Z,0.77
2023-11-26T14:43:01.090Z,0.72
2023-11-26T14:45:29.300Z,0.80
2023-11-26T14:47:58.347Z,0.82
2023-11-26T14:50:27.776Z,0.74
2023-11-26T14:52:56.164Z,0.70
2023-11-26T14:55:25.504Z,0.74
2023-11-26T14:57:53.602Z,0.67
2023-11-26T15:00:23.422Z,0.73
2023-11-26T15:02:51.802Z,0.58
2023-11-26T15:05:20.667Z,0.53
2023-11-26T15:07:49.060Z,0.49
2023-11-26T15:10:17.344Z,0.42
2023-11-26T15:12:46.227Z,0.42
2023-11-26T15:15:16.604Z,0.52
2023-11-26T15:17:44.929Z,0.56
2023-11-26T15:20:14.305Z,0.40
2023-11-26T15:22:43.587Z,0.32
2023-11-26T15:25:16.074Z,0.41
2023-11-26T15:27:45.079Z,0.31
2023-11-26T15:30:16.407Z,0.17
2023-11-26T15:32:44.992Z,0.11
2023-11-26T15:35:13.609Z,-0.07
2023-11-26T15:37:42.127Z,-0.19
2023-11-26T15:40:12.610Z,-0.13
2023-11-26T15:42:41.750Z,-0.18
2023-11-26T15:45:13.617Z,-0.28
2023-11-26T15:47:43.336Z,-0.36
2023-11-26T15:50:13.006Z,-0.43
2023-11-26T15:52:41.301Z,-0.49
2023-11-26T15:55:10.993Z,-0.50
2023-11-26T15:57:39.506Z,-0.59
2023-11-26T16:00:08.272Z,-0.68
2023-11-26T16:02:41.694Z,-0.75
2023-11-26T16:05:10.483Z,-0.70
2023-11-26T16:07:38.735Z,-0.65
2023-11-26T16:10:07.367Z,-0.73
2023-11-26T16:12:35.398Z,-0.69
2023-11-26T16:15:03.937Z,-0.60
2023-11-26T16:17:34.576Z,-0.61
2023-11-26T16:20:05.085Z,-0.69
2023-11-26T16:22:36.673Z,-0.63
2023-11-26T16:25:10.925Z,-0.67
2023-11-26T16:27:39.609Z,-0.74
2023-11-26T16:30:08.134Z,-0.68
2023-11-26T16:32:36.318Z,-0.74
2023-11-26T16:35:05.416Z,-0.82
2023-11-26T16:37:33.739Z,-0.75
2023-11-26T16:40:06.106Z,-0.63
2023-11-26T16:42:35.015Z,-0.71
2023-11-26T16:45:04.186Z,-0.78
2023-11-26T16:47:36.148Z,-0.62
2023-11-26T16:50:05.663Z,-0.66
2023-11-26T16:52:33.836Z,-0.72
2023-11-26T16:55:01.917Z,-0.84
2023-11-26T16:57:30.146Z,-0.82
2023-11-26T16:59:58.247Z,-0.84
2023-11-26T17:02:26.884Z,-0.87
2023-11-26T17:04:55.256Z,-0.97
2023-11-26T17:07:23.440Z,-0.95
2023-11-26T17:09:51.556Z,-0.85
2023-11-26T17:12:19.749Z,-0.92
2023-11-26T17:14:48.353Z,-0.91
2023-11-26T17:17:16.617Z,-0.96
2023-11-26T17:19:45.916Z,-0.92
2023-11-26T17:22:15.092Z,-0.80
2023-11-26T17:24:43.183Z,-0.74
2023-11-26T17:27:11.332Z,-0.70
2023-11-26T17:29:39.453Z,-0.77
2023-11-26T17:32:08.830Z,-0.93
2023-11-26T17:34:37.185Z,-1.06
2023-11-26T17:37:05.374Z,-1.08
2023-11-26T17:39:34.118Z,-1.05
2023-11-26T17:42:06.316Z,-1.10
2023-11-26T17:44:34.300Z,-1.12
2023-11-26T17:47:02.426Z,-1.08
2023-11-26T17:49:30.543Z,-0.93
2023-11-26T17:51:58.793Z,-0.97
2023-11-26T17:54:26.960Z,-1.02
2023-11-26T17:56:55.699Z,-1.16
2023-11-26T17:59:24.200Z,-1.20
2023-11-26T18:01:52.517Z,-1.23
2023-11-26T18:04:20.890Z,-1.15
2023-11-26T18:06:49.537Z,-1.16
2023-11-26T18:09:18.100Z,-1.10
2023-11-26T18:11:47.448Z,-1.09
2023-11-26T18:14:16.589Z,-1.07
2023-11-26T18:16:50.652Z,-1.05
2023-11-26T18:19:21.988Z,-1.17
2023-11-26T18:21:50.273Z,-1.21
2023-11-26T18:24:18.667Z,-1.32
2023-11-26T18:26:47.856Z,-1.32
2023-11-26T18:29:16.247Z,-1.34
2023-11-26T18:31:44.660Z,-1.38
2023-11-26T18:34:14.199Z,-1.44
2023-11-26T18:36:42.656Z,-1.56
2023-11-26T18:39:11.753Z,-1.59
2023-11-26T18:41:39.783Z,-1.56
2023-11-26T18:44:10.908Z,-1.68
2023-11-26T18:46:38.959Z,-1.68
2023-11-26T18:49:07.936Z,-1.76
2023-11-26T18:51:37.128Z,-1.74
2023-11-26T18:54:10.251Z,-1.74
2023-11-26T18:56:38.280Z,-1.73
2023-11-26T18:59:07.865Z,-1.72
2023-11-26T19:01:39.612Z,-1.77
2023-11-26T19:04:07.752Z,-1.63
2023-11-26T19:06:35.780Z,-1.69
2023-11-26T19:09:04.756Z,-1.79
2023-11-26T19:11:33.964Z,-1.84
2023-11-26T19:14:03.454Z,-1.92
2023-11-26T19:16:32.075Z,-1.88
2023-11-26T19:19:00.329Z,-1.86
2023-11-26T19:21:28.634Z,-1.81
2023-11-26T19:23:57.188Z,-1.76
2023-11-26T19:26:28.070Z,-1.79
2023-11-26T19:28:56.606Z,-1.81
2023-11-26T19:31:27.987Z,-1.89
2023-11-26T19:33:58.588Z,-1.98
2023-11-26T19:36:28.811Z,-1.89
2023-11-26T19:38:57.584Z,-1.94
2023-11-26T19:41:26.110Z,-1.92
2023-11-26T19:43:54.903Z,-1.94
2023-11-26T19:46:23.234Z,-1.92
2023-11-26T19:48:51.672Z,-1.95
2023-11-26T19:51:24.824Z,-1.92
2023-11-26T19:53:52.913Z,-1.97
2023-11-26T19:56:24.142Z,-1.94
2023-11-26T19:58:53.955Z,-1.97
2023-11-26T20:01:23.592Z,-2.01
2023-11-26T20:03:55.908Z,-2.11
2023-11-26T20:06:23.993Z,-2.11
2023-11-26T20:08:54.294Z,-2.09
2023-11-26T20:11:24.503Z,-2.07
2023-11-26T20:13:53.796Z,-2.09
2023-11-26T20:16:25.729Z,-2.07
2023-11-26T20:18:55.660Z,-2.08
2023-11-26T20:21:24.900Z,-2.08
2023-11-26T20:23:53.408Z,-2.12
2023-11-26T20:26:21.626Z,-2.17
2023-11-26T20:28:50.091Z,-2.25
2023-11-26T20:31:18.327Z,-2.28
2023-11-26T20:33:46.654Z,-2.24
2023-11-26T20:36:19.955Z,-2.27
2023-11-26T20:38:48.225Z,-2.31
2023-11-26T20:41:16.469Z,-2.34
2023-11-26T20:43:44.654Z,-2.36
2023-11-26T20:46:22.516Z,-2.38
2023-11-26T20:48:51.057Z,-2.41
2023-11-26T20:51:26.694Z,-2.42
2023-11-26T20:53:56.844Z,-2.33
2023-11-26T20:56:26.844Z,-2.25
2023-11-26T20:58:56.389Z,-2.29
2023-11-26T21:01:25.903Z,-2.28
2023-11-26T21:03:54.587Z,-2.32
2023-11-26T21:06:23.081Z,-2.36
2023-11-26T21:08:51.217Z,-2.31
2023-11-26T21:11:19.270Z,-2.30
2023-11-26T21:13:48.486Z,-2.28
2023-11-26T21:16:16.764Z,-2.24
2023-11-26T21:18:45.910Z,-2.23
2023-11-26T21:21:14.728Z,-2.09
2023-11-26T21:23:42.792Z,-2.02
2023-11-26T21:26:12.363Z,-1.94
2023-11-26T21:28:40.560Z,-1.87
2023-11-26T21:31:09.313Z,-1.85
2023-11-26T21:33:37.746Z,-1.87
2023-11-26T21:36:06.413Z,-1.86
2023-11-26T21:38:34.469Z,-1.88
2023-11-26T21:41:07.676Z,-1.87
2023-11-26T21:43:39.327Z,-1.94
2023-11-26T21:46:25.826Z,-2.05
2023-11-26T21:49:00.700Z,-2.15
2023-11-26T21:51:28.900Z,-2.16
2023-11-26T21:53:57.180Z,-2.16
2023-11-26T21:56:25.380Z,-2.08
2023-11-26T21:58:56.305Z,-2.03
2023-11-26T22:01:24.589Z,-1.92
2023-11-26T22:03:52.862Z,-1.86
2023-11-26T22:06:20.880Z,-1.76
2023-11-26T22:08:48.976Z,-1.61
2023-11-26T22:11:21.983Z,-1.39
2023-11-26T22:13:50.603Z,-1.19
2023-11-26T22:16:19.802Z,-1.15
2023-11-26T22:18:48.269Z,-1.09
2023-11-26T22:21:17.283Z,-0.98
2023-11-26T22:23:46.054Z,-1.05
2023-11-26T22:26:14.243Z,-1.15
2023-11-26T22:28:42.713Z,-1.04
2023-11-26T22:31:15.485Z,-1.11
2023-11-26T22:33:44.392Z,-1.17
2023-11-26T22:36:18.901Z,-1.32
2023-11-26T22:38:47.114Z,-1.41
2023-11-26T22:41:21.146Z,-1.53
2023-11-26T22:43:49.515Z,-1.58
2023-11-26T22:46:37.879Z,-1.56
2023-11-26T22:49:05.935Z,-1.60
2023-11-26T22:51:34.674Z,-1.60
2023-11-26T22:54:04.636Z,-1.66
2023-11-26T22:56:33.477Z,-1.65
2023-11-26T22:59:01.598Z,-1.65
2023-11-26T23:01:30.203Z,-1.54
2023-11-26T23:03:58.453Z,-1.47
2023-11-26T23:06:26.530Z,-1.46
2023-11-26T23:08:54.976Z,-1.38
2023-11-26T23:11:23.093Z,-1.20
2023-11-26T23:13:52.751Z,-0.98
2023-11-26T23:16:22.828Z,-0.82
2023-11-26T23:18:51.245Z,-0.82
2023-11-26T23:21:19.382Z,-0.73
2023-11-26T23:23:52.204Z,-0.54
2023-11-26T23:26:22.257Z,-0.41
2023-11-26T23:28:51.138Z,-0.26
2023-11-26T23:31:21.375Z,-0.39
2023-11-26T23:33:50.538Z,-0.36
2023-11-26T23:36:19.041Z,-0.50
2023-11-26T23:38:47.975Z,-0.48
2023-11-26T23:41:16.058Z,-0.52
2023-11-26T23:43:44.901Z,-0.39
2023-11-26T23:46:13.255Z,-0.29
2023-11-26T23:48:44.264Z,-0.19
2023-11-26T23:51:12.752Z,-0.19
2023-11-26T23:53:40.765Z,-0.21
2023-11-26T23:56:09.114Z,-0.13
2023-11-26T23:58:37.170Z,0.04
